Time;durP1;ratioP1;P1;durP2;ratioP2;P2;SDS_P1;SDS_P2;PMS_P1;PMS_P2;Temp;Humidity;BMP_temperature;BMP_pressure;BME280_temperature;BME280_humidity;BME280_pressure;Samples;Min_cycle;Max_cycle;Signal;HPM_P1;HPM_P2
2023/09/30 00:02:16;;;;;;;5.28;3.45;;;;;;;12.97;100.00;102495.19;5076513;28;20024;-74
2023/09/30 00:04:42;;;;;;;5.85;3.55;;;;;;;12.97;100.00;102497.81;5075598;28;20056;-74
2023/09/30 00:07:07;;;;;;;3.92;3.17;;;;;;;12.97;100.00;102492.53;5076184;28;20421;-74
2023/09/30 00:09:33;;;;;;;5.63;3.60;;;;;;;12.95;100.00;102489.97;5076084;28;20040;-74
2023/09/30 00:11:59;;;;;;;4.25;3.35;;;;;;;12.96;100.00;102494.31;5077543;28;20231;-74
2023/09/30 00:14:25;;;;;;;5.32;3.55;;;;;;;12.98;100.00;102494.28;5076484;28;20021;-74
2023/09/30 00:16:50;;;;;;;5.32;3.53;;;;;;;13.00;100.00;102495.09;5075184;28;20285;-74
2023/09/30 00:19:16;;;;;;;4.22;3.40;;;;;;;13.03;100.00;102489.78;5074822;28;20192;-74
2023/09/30 00:21:42;;;;;;;3.15;2.85;;;;;;;13.08;100.00;102490.53;5075503;28;20040;-74
2023/09/30 00:24:07;;;;;;;3.90;2.90;;;;;;;13.10;100.00;102491.38;5076279;28;20051;-74
2023/09/30 00:26:33;;;;;;;4.63;2.92;;;;;;;13.10;100.00;102488.72;5075751;28;20032;-74
2023/09/30 00:28:58;;;;;;;5.25;3.30;;;;;;;13.12;100.00;102496.59;5076082;28;20327;-74
2023/09/30 00:31:24;;;;;;;6.10;3.08;;;;;;;13.11;100.00;102495.69;5076033;28;20036;-74
2023/09/30 00:33:50;;;;;;;3.67;3.30;;;;;;;13.12;100.00;102491.31;5075476;28;20265;-74
2023/09/30 00:36:15;;;;;;;3.70;3.08;;;;;;;13.12;100.00;102504.47;5075543;28;20047;-74
2023/09/30 00:38:41;;;;;;;3.63;3.00;;;;;;;13.12;100.00;102513.22;5075406;28;20025;-74
2023/09/30 00:41:07;;;;;;;4.28;3.35;;;;;;;13.10;100.00;102512.41;5075953;28;20028;-74
2023/09/30 00:43:33;;;;;;;5.20;3.53;;;;;;;13.10;100.00;102522.03;5074935;28;20039;-74
2023/09/30 00:46:05;;;;;;;5.53;3.60;;;;;;;13.07;100.00;102525.63;5075649;28;20340;-74
2023/09/30 00:48:32;;;;;;;5.13;3.33;;;;;;;13.06;100.00;102521.25;5075339;28;20039;-74
2023/09/30 00:50:58;;;;;;;5.00;3.13;;;;;;;13.09;100.00;102515.06;5076392;28;20118;-74
2023/09/30 00:53:23;;;;;;;3.05;2.75;;;;;;;13.11;100.00;102510.63;5076444;28;20335;-74
2023/09/30 00:55:50;;;;;;;3.53;3.22;;;;;;;13.10;100.00;102517.66;5075718;28;20434;-74
2023/09/30 00:58:16;;;;;;;4.00;3.17;;;;;;;13.09;100.00;102523.81;5076531;28;20460;-74
2023/09/30 01:00:42;;;;;;;4.97;3.17;;;;;;;13.07;100.00;102528.25;5074762;28;20043;-74
2023/09/30 01:03:08;;;;;;;4.63;3.20;;;;;;;13.05;100.00;102544.06;5076293;28;20379;-74
2023/09/30 01:05:33;;;;;;;3.83;2.97;;;;;;;13.06;100.00;102547.53;5075654;28;20209;-74
2023/09/30 01:08:01;;;;;;;6.75;3.63;;;;;;;13.03;100.00;102547.66;5076339;28;20217;-74
2023/09/30 01:10:27;;;;;;;5.97;3.53;;;;;;;13.01;100.00;102549.44;5075683;28;20032;-74
2023/09/30 01:12:53;;;;;;;4.53;3.33;;;;;;;13.01;100.00;102539.78;5076147;28;20408;-74
2023/09/30 01:15:18;;;;;;;4.38;3.08;;;;;;;13.01;100.00;102534.53;5076423;28;20189;-74
2023/09/30 01:17:43;;;;;;;4.20;3.05;;;;;;;12.99;100.00;102544.22;5075354;28;20044;-74
2023/09/30 01:20:11;;;;;;;3.72;2.95;;;;;;;13.00;100.00;102535.41;5076258;28;20298;-74
2023/09/30 01:22:36;;;;;;;4.82;3.92;;;;;;;13.00;100.00;102537.19;5075467;28;20055;-74
2023/09/30 01:25:01;;;;;;;4.97;3.33;;;;;;;13.00;100.00;102531.94;5075954;28;20063;-74
2023/09/30 01:27:27;;;;;;;4.97;3.65;;;;;;;12.99;100.00;102535.47;5074878;28;20032;-74
2023/09/30 01:29:52;;;;;;;4.30;3.28;;;;;;;12.99;100.00;102531.06;5076361;28;20036;-74
2023/09/30 01:32:18;;;;;;;3.80;2.85;;;;;;;12.99;100.00;102536.34;5075750;28;20044;-74
2023/09/30 01:34:44;;;;;;;4.30;2.95;;;;;;;13.00;100.00;102540.69;5075266;28;20040;-74
2023/09/30 01:37:09;;;;;;;3.83;2.92;;;;;;;13.01;100.00;102541.56;5075353;28;20043;-74
2023/09/30 01:39:34;;;;;;;7.07;3.60;;;;;;;12.99;100.00;102538.09;5075003;28;20390;-74
2023/09/30 01:42:00;;;;;;;4.28;3.40;;;;;;;12.97;100.00;102535.50;5075627;28;20036;-74
2023/09/30 01:44:25;;;;;;;4.47;3.85;;;;;;;12.97;100.00;102542.50;5075471;28;20266;-74
2023/09/30 01:46:51;;;;;;;4.82;3.80;;;;;;;12.95;100.00;102534.69;5074810;28;20098;-74
2023/09/30 01:49:18;;;;;;;4.75;3.75;;;;;;;12.93;100.00;102532.97;5075472;28;20065;-74
2023/09/30 01:51:43;;;;;;;3.95;3.55;;;;;;;12.92;100.00;102541.78;5074688;28;20099;-74
2023/09/30 01:54:09;;;;;;;4.75;3.30;;;;;;;12.94;100.00;102545.22;5075260;28;20338;-74
2023/09/30 01:56:34;;;;;;;4.43;3.30;;;;;;;12.95;100.00;102545.22;5074592;28;20227;-74
2023/09/30 01:59:00;;;;;;;4.00;3.03;;;;;;;13.00;100.00;102545.94;5075161;28;20047;-74
2023/09/30 02:01:25;;;;;;;6.97;4.00;;;;;;;13.02;100.00;102541.53;5075161;28;20344;-74
2023/09/30 02:03:51;;;;;;;5.15;3.58;;;;;;;13.04;100.00;102538.84;5074581;28;20036;-74
2023/09/30 02:06:16;;;;;;;3.83;3.40;;;;;;;13.05;100.00;102541.44;5075236;28;20033;-74
2023/09/30 02:08:44;;;;;;;5.20;4.07;;;;;;;13.05;100.00;102544.06;5074224;28;20227;-74
2023/09/30 02:11:10;;;;;;;5.88;3.97;;;;;;;13.06;100.00;102552.81;5075413;28;20032;-74
2023/09/30 02:13:35;;;;;;;3.97;3.58;;;;;;;13.05;100.00;102541.44;5074703;28;20059;-74
2023/09/30 02:16:01;;;;;;;4.25;3.50;;;;;;;13.07;100.00;102534.38;5074946;28;20077;-74
2023/09/30 02:18:27;;;;;;;6.68;3.85;;;;;;;13.09;100.00;102523.81;5074585;28;20190;-74
2023/09/30 02:20:53;;;;;;;6.82;4.05;;;;;;;13.09;100.00;102521.19;5074922;28;20193;-74
2023/09/30 02:23:18;;;;;;;4.13;3.67;;;;;;;13.11;100.00;102527.25;5075073;28;20036;-74
2023/09/30 02:25:44;;;;;;;4.38;3.95;;;;;;;13.11;100.00;102524.63;5073367;28;20066;-74
2023/09/30 02:28:10;;;;;;;5.28;4.22;;;;;;;13.12;100.00;102525.53;5074898;28;20263;-74
2023/09/30 02:30:36;;;;;;;4.85;3.70;;;;;;;13.12;100.00;102517.63;5074683;28;20227;-74
2023/09/30 02:33:03;;;;;;;5.32;4.00;;;;;;;13.13;100.00;102521.97;5075280;28;20037;-74
2023/09/30 02:35:28;;;;;;;4.35;3.95;;;;;;;13.13;100.00;102521.97;5074342;28;20032;-74
2023/09/30 02:37:54;;;;;;;6.13;4.45;;;;;;;13.13;100.00;102514.94;5074835;28;20530;-74
2023/09/30 02:40:19;;;;;;;3.95;3.65;;;;;;;13.14;100.00;102514.06;5075000;28;20036;-74
2023/09/30 02:42:45;;;;;;;5.07;3.70;;;;;;;13.17;100.00;102521.88;5074339;28;20020;-74
2023/09/30 02:45:12;;;;;;;3.92;3.63;;;;;;;13.19;100.00;102527.97;5074904;28;20086;-74
2023/09/30 02:47:39;;;;;;;3.78;3.47;;;;;;;13.20;100.00;102532.31;5074106;28;20062;-74
2023/09/30 02:50:06;;;;;;;4.22;3.80;;;;;;;13.21;100.00;102531.41;5074569;28;20063;-74
2023/09/30 02:52:31;;;;;;;4.78;4.20;;;;;;;13.21;100.00;102531.41;5074166;28;20047;-74
2023/09/30 02:54:58;;;;;;;4.57;4.18;;;;;;;13.19;100.00;102525.31;5074662;28;20036;-74
2023/09/30 02:57:24;;;;;;;4.50;4.03;;;;;;;13.18;100.00;102525.34;5074893;28;20099;-74
2023/09/30 02:59:51;;;;;;;4.32;3.92;;;;;;;13.19;100.00;102521.84;5074282;28;20040;-74
2023/09/30 03:02:18;;;;;;;6.03;4.32;;;;;;;13.18;100.00;102517.47;5074894;28;20434;-74
2023/09/30 03:04:43;;;;;;;5.15;4.63;;;;;;;13.17;100.00;102519.25;5074421;28;20036;-74
2023/09/30 03:07:09;;;;;;;5.80;4.80;;;;;;;13.17;100.00;102518.34;5074063;28;20072;-74
2023/09/30 03:09:35;;;;;;;5.82;4.68;;;;;;;13.17;100.00;102519.25;5074188;28;20032;-74
2023/09/30 03:12:02;;;;;;;7.00;5.20;;;;;;;13.16;100.00;102517.50;5074479;28;20514;-74
2023/09/30 03:14:30;;;;;;;5.18;4.70;;;;;;;13.16;100.00;102516.66;5074053;28;20205;-74
2023/09/30 03:16:57;;;;;;;5.43;4.47;;;;;;;13.16;100.00;102525.41;5072776;28;20032;-74
2023/09/30 03:19:22;;;;;;;4.50;4.10;;;;;;;13.19;100.00;102513.94;5074550;28;20032;-73
2023/09/30 03:21:48;;;;;;;5.13;4.47;;;;;;;13.21;100.00;102518.25;5073586;28;20024;-73
2023/09/30 03:24:13;;;;;;;7.50;5.20;;;;;;;13.22;100.00;102514.75;5074567;28;20032;-74
2023/09/30 03:26:41;;;;;;;6.30;4.78;;;;;;;13.21;100.00;102520.88;5074188;28;20036;-73
2023/09/30 03:29:08;;;;;;;5.20;4.70;;;;;;;13.22;100.00;102520.00;5074345;28;20040;-73
2023/09/30 03:31:34;;;;;;;5.70;4.75;;;;;;;13.23;100.00;102516.44;5072532;28;20060;-74
2023/09/30 03:34:00;;;;;;;5.05;4.10;;;;;;;13.25;100.00;102519.03;5074113;28;20046;-74
2023/09/30 03:36:26;;;;;;;5.93;5.15;;;;;;;13.25;100.00;102516.41;5074222;28;20060;-74
2023/09/30 03:38:55;;;;;;;6.75;5.40;;;;;;;13.25;100.00;102516.41;5072690;28;20032;-74
2023/09/30 03:41:20;;;;;;;5.03;4.50;;;;;;;13.25;100.00;102522.53;5074368;28;20146;-74
2023/09/30 03:43:47;;;;;;;5.47;4.95;;;;;;;13.25;100.00;102525.16;5073832;28;20234;-74
2023/09/30 03:46:13;;;;;;;5.78;5.18;;;;;;;13.25;100.00;102522.53;5074241;28;20267;-74
2023/09/30 03:48:41;;;;;;;6.28;5.57;;;;;;;13.26;100.00;102510.22;5072084;28;20023;-74
2023/09/30 03:51:13;;;;;;;6.53;5.43;;;;;;;13.27;100.00;102516.38;5076098;28;20040;-74
2023/09/30 03:53:39;;;;;;;7.00;5.32;;;;;;;13.26;100.00;102515.50;5077070;28;20056;-74
2023/09/30 03:56:04;;;;;;;6.97;5.28;;;;;;;13.27;100.00;102511.97;5077911;28;20036;-74
2023/09/30 03:58:29;;;;;;;5.75;5.25;;;;;;;13.27;100.00;102509.34;5077070;28;20028;-74
2023/09/30 04:00:55;;;;;;;9.32;7.30;;;;;;;13.29;100.00;102525.09;5077669;28;20032;-74
2023/09/30 04:03:21;;;;;;;6.60;5.95;;;;;;;13.30;100.00;102518.91;5077488;28;20017;-74
2023/09/30 04:05:50;;;;;;;7.15;6.38;;;;;;;13.31;100.00;102518.91;5076753;28;20034;-74
2023/09/30 04:08:17;;;;;;;7.13;6.35;;;;;;;13.33;100.00;102519.72;5077608;28;20037;-74
2023/09/30 04:10:43;;;;;;;7.88;6.07;;;;;;;13.34;100.00;102512.72;5076858;28;20054;-74
2023/09/30 04:13:08;;;;;;;7.22;5.47;;;;;;;13.35;100.00;102506.53;5077342;28;20032;-74
2023/09/30 04:15:35;;;;;;;6.60;5.93;;;;;;;13.34;100.00;102505.69;5076961;28;20036;-74
2023/09/30 04:18:00;;;;;;;7.57;6.15;;;;;;;13.36;100.00;102514.41;5077434;28;20040;-74
2023/09/30 04:20:27;;;;;;;6.65;5.57;;;;;;;13.38;100.00;102517.84;5077142;28;20036;-74
2023/09/30 04:22:57;;;;;;;8.95;6.57;;;;;;;13.38;100.00;102523.13;5076817;28;20063;-74
2023/09/30 04:25:24;;;;;;;6.72;5.93;;;;;;;13.37;100.00;102531.94;5077498;28;20043;-74
2023/09/30 04:27:50;;;;;;;9.25;6.25;;;;;;;13.37;100.00;102531.94;5076895;28;20355;-74
2023/09/30 04:30:15;;;;;;;8.73;6.88;;;;;;;13.38;100.00;102533.63;5077005;28;20039;-74
2023/09/30 04:32:41;;;;;;;8.43;6.47;;;;;;;13.38;100.00;102538.06;5076499;28;20032;-74
2023/09/30 04:35:10;;;;;;;7.88;5.90;;;;;;;13.40;100.00;102536.25;5076925;28;20029;-74
2023/09/30 04:37:36;;;;;;;8.23;6.28;;;;;;;13.41;100.00;102530.94;5076492;28;20347;-74
2023/09/30 04:40:29;;;;;;;6.70;5.53;;;;;;;13.43;100.00;102538.81;5077231;28;20318;-74
2023/09/30 04:42:58;;;;;;;6.30;5.80;;;;;;;13.45;100.00;102539.63;5076471;28;20350;-74
2023/09/30 04:45:26;;;;;;;6.93;6.22;;;;;;;13.44;100.00;102541.41;5076905;28;20028;-74
2023/09/30 04:47:53;;;;;;;7.55;6.85;;;;;;;13.44;100.00;102543.16;5076502;28;20028;-74
2023/09/30 04:50:21;;;;;;;7.40;6.05;;;;;;;13.43;100.00;102542.28;5076446;28;20275;-74
2023/09/30 04:52:47;;;;;;;7.07;5.80;;;;;;;13.45;100.00;102534.34;5075983;28;20024;-74
2023/09/30 04:55:15;;;;;;;9.25;7.20;;;;;;;13.45;100.00;102531.72;5076781;28;20276;-74
2023/09/30 04:57:41;;;;;;;6.88;6.07;;;;;;;13.43;100.00;102534.41;5076122;28;20335;-73
2023/09/30 05:00:11;;;;;;;6.88;6.28;;;;;;;13.44;100.00;102540.50;5076634;28;20365;-73
2023/09/30 05:02:36;;;;;;;7.05;6.35;;;;;;;13.42;100.00;102534.44;5073359;28;20033;-74
2023/09/30 05:05:05;;;;;;;8.38;7.22;;;;;;;13.41;100.00;102532.72;5076629;28;20078;-74
2023/09/30 05:07:30;;;;;;;8.73;6.47;;;;;;;13.39;100.00;102534.53;5075742;28;20056;-74
2023/09/30 05:09:56;;;;;;;7.28;6.57;;;;;;;13.39;100.00;102538.00;5076505;28;20063;-74
2023/09/30 05:12:21;;;;;;;9.45;8.27;;;;;;;13.37;100.00;102536.31;5076197;28;20050;-74
2023/09/30 05:14:48;;;;;;;8.48;7.47;;;;;;;13.34;100.00;102537.25;5075626;28;20382;-74
2023/09/30 05:17:13;;;;;;;8.63;7.43;;;;;;;13.33;100.00;102540.78;5076149;28;20456;-74
2023/09/30 05:19:39;;;;;;;7.93;7.15;;;;;;;13.34;100.00;102544.31;5075978;28;20044;-74
2023/09/30 05:22:05;;;;;;;9.18;7.63;;;;;;;13.32;100.00;102546.09;5075694;28;20115;-74
2023/09/30 05:24:30;;;;;;;9.82;8.25;;;;;;;13.30;100.00;102545.22;5075927;28;20051;-74
2023/09/30 05:26:56;;;;;;;9.32;7.85;;;;;;;13.30;100.00;102542.59;5075920;28;20327;-74
2023/09/30 05:29:22;;;;;;;8.82;7.95;;;;;;;13.28;100.00;102542.66;5075841;28;20036;-74
2023/09/30 05:31:47;;;;;;;8.63;7.20;;;;;;;13.27;100.00;102540.06;5075278;28;20045;-74
2023/09/30 05:34:13;;;;;;;8.80;7.80;;;;;;;13.25;100.00;102550.63;5075778;28;20032;-74
2023/09/30 05:36:38;;;;;;;9.75;7.57;;;;;;;13.25;100.00;102548.84;5074757;28;20028;-74
2023/09/30 05:39:04;;;;;;;9.25;7.70;;;;;;;13.23;100.00;102544.53;5075735;28;20034;-74
2023/09/30 05:41:33;;;;;;;9.48;8.48;;;;;;;13.20;100.00;102553.34;5075062;28;20063;-74
2023/09/30 05:43:59;;;;;;;10.52;7.93;;;;;;;13.19;100.00;102551.63;5075854;28;20335;-74
2023/09/30 05:46:25;;;;;;;9.07;7.85;;;;;;;13.18;100.00;102551.66;5074275;28;20374;-74
2023/09/30 05:48:50;;;;;;;9.45;7.43;;;;;;;13.14;100.00;102550.88;5074833;28;20028;-74
2023/09/30 05:51:18;;;;;;;9.35;7.90;;;;;;;13.15;100.00;102552.63;5075275;28;20021;-74
2023/09/30 05:53:44;;;;;;;11.25;8.85;;;;;;;13.13;100.00;102557.03;5074717;28;20302;-74
2023/09/30 05:56:11;;;;;;;10.57;7.65;;;;;;;13.13;100.00;102554.41;5075498;28;20327;-73
2023/09/30 05:58:37;;;;;;;9.18;8.07;;;;;;;13.13;100.00;102554.41;5075129;28;20036;-74
2023/09/30 06:01:10;;;;;;;9.88;7.72;;;;;;;13.15;100.00;102554.38;5075288;28;20369;-74
2023/09/30 06:03:39;;;;;;;9.32;7.35;;;;;;;13.15;100.00;102555.25;5074733;28;20083;-74
2023/09/30 06:06:12;;;;;;;8.60;7.03;;;;;;;13.16;100.00;102554.31;5075234;28;20228;-74
2023/09/30 06:08:37;;;;;;;7.47;6.72;;;;;;;13.15;100.00;102552.63;5074502;28;20050;-74
2023/09/30 06:11:02;;;;;;;8.75;7.60;;;;;;;13.16;100.00;102553.47;5075333;28;20056;-74
2023/09/30 06:13:31;;;;;;;9.48;7.25;;;;;;;13.15;100.00;102555.25;5074210;28;20040;-74
2023/09/30 06:15:56;;;;;;;12.80;7.53;;;;;;;13.15;100.00;102552.63;5075295;28;20039;-74
2023/09/30 06:18:22;;;;;;;14.25;7.50;;;;;;;13.15;100.00;102555.25;5075046;28;20033;-74
2023/09/30 06:20:48;;;;;;;11.30;8.40;;;;;;;13.15;100.00;102563.13;5074436;28;20035;-74
2023/09/30 06:23:14;;;;;;;8.63;7.65;;;;;;;13.15;100.00;102565.78;5075121;28;20024;-74
2023/09/30 06:25:39;;;;;;;9.10;7.38;;;;;;;13.13;100.00;102577.22;5074472;28;20035;-74
2023/09/30 06:28:07;;;;;;;11.55;7.45;;;;;;;13.13;100.00;102585.09;5075010;28;20040;-74
2023/09/30 06:30:33;;;;;;;9.40;7.70;;;;;;;13.13;100.00;102588.59;5074686;28;20020;-74
2023/09/30 06:33:00;;;;;;;8.07;7.18;;;;;;;13.17;100.00;102599.91;5074714;28;20047;-74
2023/09/30 06:35:26;;;;;;;8.25;7.07;;;;;;;13.20;100.00;102599.84;5074903;28;20363;-74
2023/09/30 06:37:52;;;;;;;8.68;6.03;;;;;;;13.24;100.00;102605.00;5074744;28;20043;-74
2023/09/30 06:40:18;;;;;;;6.00;5.38;;;;;;;13.28;100.00;102604.91;5075382;28;20029;-74
2023/09/30 06:42:44;;;;;;;8.43;6.18;;;;;;;13.30;100.00;102603.09;5074494;28;20099;-74
2023/09/30 06:45:09;;;;;;;10.95;6.65;;;;;;;13.28;100.00;102594.41;5074903;28;20033;-74
2023/09/30 06:47:36;;;;;;;7.65;6.95;;;;;;;13.28;100.00;102594.41;5074136;28;20050;-74
2023/09/30 06:50:09;;;;;;;7.15;6.20;;;;;;;13.27;100.00;102603.22;5075124;28;20058;-74
2023/09/30 06:52:36;;;;;;;11.00;7.72;;;;;;;13.26;100.00;102604.94;5073994;28;20326;-74
2023/09/30 06:55:05;;;;;;;9.60;7.22;;;;;;;13.28;100.00;102599.66;5074907;28;20047;-74
2023/09/30 06:57:35;;;;;;;9.07;7.57;;;;;;;13.30;100.00;102606.63;5074049;28;20028;-74
2023/09/30 07:00:01;;;;;;;9.70;7.85;;;;;;;13.30;100.00;102601.38;5075005;28;20032;-74
2023/09/30 07:02:27;;;;;;;12.63;7.82;;;;;;;13.32;100.00;102612.75;5074618;28;20097;-74
2023/09/30 07:04:52;;;;;;;10.13;8.23;;;;;;;13.36;100.00;102622.28;5074614;28;20040;-74
2023/09/30 07:07:18;;;;;;;13.32;9.25;;;;;;;13.38;100.00;102615.22;5074119;28;20060;-74
2023/09/30 07:09:44;;;;;;;11.88;9.68;;;;;;;13.43;100.00;102621.25;5074115;28;20257;-74
2023/09/30 07:12:10;;;;;;;14.98;10.77;;;;;;;13.46;100.00;102633.44;5074323;28;20041;-74
2023/09/30 07:14:35;;;;;;;18.90;12.05;;;;;;;13.49;100.00;102638.66;5073636;28;20070;-74
2023/09/30 07:17:00;;;;;;;19.92;13.57;;;;;;;13.52;100.00;102629.84;5074424;28;20581;-73
2023/09/30 07:19:26;;;;;;;16.20;11.90;;;;;;;13.55;100.00;102633.25;5074340;28;20506;-74
2023/09/30 07:21:51;;;;;;;16.65;12.05;;;;;;;13.57;100.00;102630.56;5074273;28;20234;-74
2023/09/30 07:24:17;;;;;;;18.20;11.73;;;;;;;13.59;100.00;102640.16;5074574;28;20074;-74
2023/09/30 07:26:42;;;;;;;21.15;13.43;;;;;;;13.62;100.00;102640.09;5077323;28;20095;-74
2023/09/30 07:29:09;;;;;;;13.52;10.93;;;;;;;13.64;100.00;102650.56;5078450;28;20036;-74
2023/09/30 07:31:37;;;;;;;14.57;11.85;;;;;;;13.66;100.00;102648.78;5077507;28;20037;-74
2023/09/30 07:34:03;;;;;;;17.60;13.00;;;;;;;13.68;100.00;102646.09;5077997;28;20099;-74
2023/09/30 07:36:28;;;;;;;17.85;12.35;;;;;;;13.70;100.00;102649.53;5076988;28;20036;-74
2023/09/30 07:38:54;;;;;;;21.95;12.77;;;;;;;13.73;100.00;102649.47;5077970;28;20038;-74
2023/09/30 07:41:19;;;;;;;26.02;16.00;;;;;;;13.74;100.00;102643.31;5078017;28;20090;-74
2023/09/30 07:43:45;;;;;;;17.83;11.85;;;;;;;13.76;100.00;102642.38;5077219;28;20099;-74
2023/09/30 07:46:10;;;;;;;15.25;10.68;;;;;;;13.78;100.00;102639.69;5063688;28;20032;-74
2023/09/30 07:48:35;;;;;;;17.60;12.23;;;;;;;13.79;100.00;102641.44;5072987;28;20340;-73
2023/09/30 07:51:01;;;;;;;15.82;11.75;;;;;;;13.82;100.00;102641.34;5076829;28;20039;-74
2023/09/30 07:53:27;;;;;;;17.88;11.05;;;;;;;13.84;100.00;102631.63;5076382;28;20063;-74
2023/09/30 07:55:54;;;;;;;14.30;10.45;;;;;;;13.87;100.00;102625.44;5076239;28;20027;-74
2023/09/30 07:58:19;;;;;;;13.07;10.13;;;;;;;13.91;100.00;102627.06;5076135;28;20032;-74
2023/09/30 08:00:45;;;;;;;12.90;10.27;;;;;;;13.92;100.00;102613.03;5076091;28;20186;-74
2023/09/30 08:03:11;;;;;;;21.13;12.57;;;;;;;13.93;100.00;102626.13;5075915;28;20055;-74
2023/09/30 08:05:37;;;;;;;23.60;12.32;;;;;;;13.96;100.00;102618.16;5075237;28;20025;-74
2023/09/30 08:08:02;;;;;;;24.75;12.60;;;;;;;13.99;100.00;102614.59;5075539;28;20070;-74
2023/09/30 08:10:29;;;;;;;14.63;9.60;;;;;;;14.03;100.00;102618.84;5075407;28;20358;-74
2023/09/30 08:12:57;;;;;;;13.85;10.43;;;;;;;14.06;100.00;102610.88;5075789;28;20040;-74
2023/09/30 08:15:22;;;;;;;13.55;10.05;;;;;;;14.11;100.00;102616.00;5075845;28;20046;-74
2023/09/30 08:17:47;;;;;;;18.42;10.48;;;;;;;14.13;100.00;102620.31;5075367;28;20109;-74
2023/09/30 08:20:13;;;;;;;13.80;9.95;;;;;;;14.18;100.00;102633.38;5075943;28;20020;-73
2023/09/30 08:22:40;;;;;;;15.82;9.75;;;;;;;14.20;100.00;102623.66;5070243;28;20060;-74
2023/09/30 08:25:06;;;;;;;16.77;9.93;;;;;;;14.23;100.00;102615.69;5075862;28;20036;-73
2023/09/30 08:27:32;;;;;;;20.33;10.48;;;;;;;14.26;100.00;102615.59;5071228;28;20184;-73
2023/09/30 08:29:57;;;;;;;17.92;9.98;;;;;;;14.30;100.00;102614.59;5075560;28;20109;-73
2023/09/30 08:32:23;;;;;;;18.65;10.05;;;;;;;14.33;100.00;102614.50;5074962;28;20036;-73
2023/09/30 08:34:49;;;;;;;16.27;9.95;;;;;;;14.35;100.00;102615.34;5073997;28;20032;-73
2023/09/30 08:37:14;;;;;;;15.65;9.25;;;;;;;14.39;100.00;102624.03;5074686;28;20472;-73
2023/09/30 08:39:40;;;;;;;11.48;8.50;;;;;;;14.40;100.00;102631.00;5075079;28;20120;-73
2023/09/30 08:42:12;;;;;;;8.30;6.97;;;;;;;14.43;100.00;102638.00;5076027;28;20357;-73
2023/09/30 08:44:41;;;;;;;22.83;10.43;;;;;;;14.44;100.00;102630.00;5075725;28;20339;-73
2023/09/30 08:47:10;;;;;;;14.05;8.18;;;;;;;14.48;100.00;102643.97;5075800;28;20094;-73
2023/09/30 08:49:41;;;;;;;15.70;8.80;;;;;;;14.49;100.00;102649.19;5073523;28;20040;-73
2023/09/30 08:52:09;;;;;;;12.07;7.20;;;;;;;14.52;100.00;102658.81;5074207;28;20040;-72
2023/09/30 08:54:35;;;;;;;21.48;8.30;;;;;;;14.52;100.00;102662.31;5074041;28;20355;-72
2023/09/30 08:57:01;;;;;;;16.23;7.93;;;;;;;14.57;100.00;102659.53;5074817;28;20150;-72
2023/09/30 08:59:27;;;;;;;11.02;6.95;;;;;;;14.61;100.00;102665.59;5069088;28;20106;-72
2023/09/30 09:01:53;;;;;;;10.13;6.38;;;;;;;14.64;100.00;102676.06;5075581;28;20021;-72
2023/09/30 09:04:18;;;;;;;8.30;5.95;;;;;;;14.67;100.00;102684.75;5075907;28;20383;-72
2023/09/30 09:06:44;;;;;;;11.13;6.60;;;;;;;14.70;100.00;102697.88;5074695;28;20043;-72
2023/09/30 09:09:19;;;;;;;10.95;6.40;;;;;;;14.73;100.00;102700.41;5076085;28;20051;-72
2023/09/30 09:11:46;;;;;;;11.48;6.65;;;;;;;14.76;100.00;102702.09;5075039;28;20035;-72
2023/09/30 09:14:11;;;;;;;10.93;7.00;;;;;;;14.80;100.00;102705.50;5075589;28;20039;-72
2023/09/30 09:16:37;;;;;;;6.82;5.68;;;;;;;14.84;100.00;102708.00;5075255;28;20044;-72
2023/09/30 09:19:21;;;;;;;8.52;5.22;;;;;;;14.89;100.00;102702.59;5075527;28;20040;-72
2023/09/30 09:21:58;;;;;;;14.32;5.53;;;;;;;14.91;100.00;102696.38;5074721;28;20032;-72
2023/09/30 09:24:27;;;;;;;7.35;5.07;;;;;;;14.95;100.00;102703.31;5075514;28;20042;-72
2023/09/30 09:27:04;;;;;;;11.55;5.18;;;;;;;15.01;100.00;102706.63;5075382;28;20078;-73
2023/09/30 09:29:29;;;;;;;7.07;5.20;;;;;;;15.05;100.00;102709.16;5074979;28;20059;-72
2023/09/30 09:32:06;;;;;;;8.15;4.32;;;;;;;15.10;100.00;102709.88;5073971;28;20032;-72
2023/09/30 09:34:32;;;;;;;14.82;5.03;;;;;;;15.15;100.00;102715.00;5074835;28;20040;-72
2023/09/30 09:36:58;;;;;;;12.23;4.80;;;;;;;15.20;100.00;102702.56;5075172;28;20032;-73
2023/09/30 09:39:34;;;;;;;7.55;3.95;;;;;;;15.24;100.00;102703.31;5074293;28;20215;-73
2023/09/30 09:42:01;;;;;;;10.23;3.50;;;;;;;15.26;100.00;102702.38;5075663;28;20029;-73
2023/09/30 09:44:27;;;;;;;13.77;4.72;;;;;;;15.32;100.00;102706.59;5074683;28;20036;-73
2023/09/30 09:46:52;;;;;;;5.90;2.90;;;;;;;15.36;100.00;102698.53;5075011;28;20067;-73
2023/09/30 09:49:18;;;;;;;8.40;3.22;;;;;;;15.40;100.00;102707.22;5074969;28;20066;-73
2023/09/30 09:51:45;;;;;;;7.43;2.75;;;;;;;15.46;100.00;102704.41;5074368;28;20043;-73
2023/09/30 09:54:11;;;;;;;7.85;2.95;;;;;;;15.53;100.00;102705.94;5075263;28;20040;-73
2023/09/30 09:56:39;;;;;;;7.70;2.67;;;;;;;15.61;100.00;102703.03;5074446;28;20039;-73
2023/09/30 09:59:06;;;;;;;5.65;2.53;;;;;;;15.69;100.00;102708.06;5075319;28;20317;-73
2023/09/30 10:01:33;;;;;;;6.97;2.00;;;;;;;15.74;100.00;102700.91;5074134;28;20036;-73
2023/09/30 10:03:59;;;;;;;8.05;2.40;;;;;;;15.78;100.00;102705.16;5074449;28;20043;-73
2023/09/30 10:06:24;;;;;;;5.22;1.88;;;;;;;15.81;100.00;102689.22;5074445;28;20052;-73
2023/09/30 10:08:52;;;;;;;5.55;1.92;;;;;;;15.83;100.00;102683.88;5074003;28;20266;-73
2023/09/30 10:11:18;;;;;;;12.63;2.20;;;;;;;15.85;99.79;102676.75;5074695;28;20052;-73
2023/09/30 10:14:00;;;;;;;5.25;2.15;;;;;;;15.90;100.00;102674.84;5073859;28;20036;-74
2023/09/30 10:16:34;;;;;;;3.22;1.73;;;;;;;15.93;100.00;102672.06;5075005;28;20067;-73
2023/09/30 10:19:10;;;;;;;5.90;1.70;;;;;;;15.96;100.00;102665.84;5074688;28;20344;-73
2023/09/30 10:21:36;;;;;;;8.45;2.25;;;;;;;15.98;99.33;102667.50;5073874;28;20028;-73
2023/09/30 10:24:22;;;;;;;4.72;1.98;;;;;;;16.02;95.27;102668.25;5074434;28;20048;-73
2023/09/30 10:27:31;;;;;;;5.65;2.30;;;;;;;16.00;96.22;102678.88;5074008;28;20024;-73
2023/09/30 10:30:08;;;;;;;4.32;1.85;;;;;;;15.97;96.51;102672.81;5074513;28;20188;-73
2023/09/30 10:32:56;;;;;;;5.50;1.83;;;;;;;15.98;96.45;102671.94;5073929;28;20029;-73
2023/09/30 10:35:31;;;;;;;6.70;1.92;;;;;;;16.01;96.64;102671.78;5074355;28;20366;-73
2023/09/30 10:38:21;;;;;;;4.60;2.25;;;;;;;16.07;96.61;102667.19;5074089;28;20024;-73
2023/09/30 10:40:50;;;;;;;4.80;1.92;;;;;;;16.11;96.56;102668.78;5074197;28;20338;-73
2023/09/30 10:43:39;;;;;;;6.57;2.33;;;;;;;16.15;96.61;102677.47;5074302;28;20184;-73
2023/09/30 10:46:26;;;;;;;6.63;2.03;;;;;;;16.19;96.41;102668.53;5073936;28;20268;-73
2023/09/30 10:48:52;;;;;;;11.05;2.28;;;;;;;16.21;95.82;102672.00;5074314;28;20020;-73
2023/09/30 10:51:20;;;;;;;5.70;2.78;;;;;;;16.26;95.67;102674.44;5073958;28;20369;-73
2023/09/30 10:53:56;;;;;;;;;;;;;;;16.28;92.08;102675.25;5074412;28;20651;-73
2023/09/30 10:56:23;;;;;;;8.85;2.00;;;;;;;16.29;92.91;102675.22;5074472;28;20233;-73
2023/09/30 10:58:52;;;;;;;10.27;2.13;;;;;;;16.29;91.30;102672.56;5073389;28;20036;-73
2023/09/30 11:01:22;;;;;;;10.93;2.47;;;;;;;16.29;90.15;102667.28;5077817;28;20449;-73
2023/09/30 11:03:52;;;;;;;6.13;2.35;;;;;;;16.31;90.64;102669.88;5077848;28;20107;-73
2023/09/30 11:06:21;;;;;;;8.73;2.67;;;;;;;16.31;89.76;102665.44;5075699;28;20185;-74
2023/09/30 11:08:50;;;;;;;;;;;;;;;16.31;89.94;102652.22;5078046;28;20075;-73
2023/09/30 11:11:16;;;;;;;6.70;2.03;;;;;;;16.33;90.30;102651.31;5083298;28;19916;-73
2023/09/30 11:13:41;;;;;;;4.72;2.05;;;;;;;16.33;91.01;102656.59;5085427;28;20218;-73
2023/09/30 11:16:09;;;;;;;7.90;3.08;;;;;;;16.34;91.21;102645.13;5078746;28;20222;-73